Time;durP1;ratioP1;P1;durP2;ratioP2;P2;SDS_P1;SDS_P2;PMS_P1;PMS_P2;Temp;Humidity;BMP_temperature;BMP_pressure;BME280_temperature;BME280_humidity;BME280_pressure;Samples;Min_cycle;Max_cycle;Signal;HPM_P1;HPM_P2
2023/06/02 00:01:53;;;;;;;16.63;4.15;;;;;;;11.80;70.82;101981.63;5263927;28;20029;-69
2023/06/02 00:04:26;;;;;;;12.53;3.57;;;;;;;11.71;71.46;101972.03;5263637;28;20117;-70
2023/06/02 00:07:03;;;;;;;14.88;4.43;;;;;;;11.73;71.39;101977.25;5263848;28;20104;-69
2023/06/02 00:09:42;;;;;;;9.20;3.97;;;;;;;11.73;71.99;101980.75;5263421;28;20453;-69
2023/06/02 00:12:13;;;;;;;13.30;3.58;;;;;;;11.75;71.74;101980.75;5263309;28;20056;-69
2023/06/02 00:14:44;;;;;;;10.57;3.97;;;;;;;11.60;71.64;101978.97;5263407;28;20033;-70
2023/06/02 00:17:18;;;;;;;12.03;4.17;;;;;;;11.56;71.84;101972.00;5263622;28;20112;-70
2023/06/02 00:19:50;;;;;;;8.18;3.90;;;;;;;11.52;71.94;101975.47;5263441;28;20036;-68
2023/06/02 00:22:22;;;;;;;15.68;4.50;;;;;;;11.54;71.68;101978.97;5262058;28;20033;-71
2023/06/02 00:24:53;;;;;;;11.30;3.87;;;;;;;11.49;72.10;101979.84;5263618;28;20380;-69
2023/06/02 00:27:24;;;;;;;11.43;4.23;;;;;;;11.49;71.26;101976.34;5263499;28;20106;-70
2023/06/02 00:29:56;;;;;;;9.60;3.77;;;;;;;11.51;72.04;101971.97;5263437;28;20033;-69
2023/06/02 00:32:27;;;;;;;9.33;3.73;;;;;;;11.48;72.48;101977.22;5263418;28;20068;-69
2023/06/02 00:34:59;;;;;;;11.50;3.80;;;;;;;11.45;71.84;101978.06;5262107;28;20460;-70
2023/06/02 00:37:30;;;;;;;6.13;3.13;;;;;;;11.39;71.64;101972.84;5263207;28;20078;-68
2023/06/02 00:40:02;;;;;;;10.70;4.33;;;;;;;11.41;71.19;101972.84;5263037;28;20033;-70
2023/06/02 00:42:34;;;;;;;9.23;3.40;;;;;;;11.34;70.62;101973.69;5262390;28;20036;-69
2023/06/02 00:45:06;;;;;;;12.10;3.57;;;;;;;11.31;69.76;101974.56;5263250;28;20060;-70
2023/06/02 00:47:37;;;;;;;13.55;3.95;;;;;;;11.28;70.43;101972.78;5262686;28;20044;-71
2023/06/02 00:50:09;;;;;;;8.43;3.10;;;;;;;11.28;70.30;101967.56;5263126;28;20385;-70
2023/06/02 00:52:41;;;;;;;11.35;3.85;;;;;;;11.26;70.13;101968.44;5262954;28;20071;-70
2023/06/02 00:55:12;;;;;;;13.77;3.70;;;;;;;11.19;69.59;101971.88;5262747;28;20056;-69
2023/06/02 00:57:44;;;;;;;11.63;4.27;;;;;;;11.10;69.68;101970.13;5262821;28;20033;-70
2023/06/02 01:00:16;;;;;;;16.50;4.03;;;;;;;11.19;70.49;101972.78;5262867;28;20028;-70
2023/06/02 01:02:47;;;;;;;9.10;4.50;;;;;;;11.05;70.18;101972.72;5262786;28;20448;-70
2023/06/02 01:05:20;;;;;;;11.23;3.57;;;;;;;11.07;70.05;101970.13;5262783;28;20065;-69
2023/06/02 01:07:58;;;;;;;13.20;4.40;;;;;;;11.02;70.18;101974.44;5261428;28;20025;-70
2023/06/02 01:10:31;;;;;;;13.63;4.10;;;;;;;11.22;71.18;101971.91;5255586;28;20444;-70
2023/06/02 01:13:03;;;;;;;12.20;4.28;;;;;;;10.97;69.93;101973.56;5241132;28;20084;-70
2023/06/02 01:15:35;;;;;;;13.17;3.87;;;;;;;11.10;70.64;101977.97;5241480;28;20037;-71
2023/06/02 01:18:10;;;;;;;14.73;4.03;;;;;;;11.09;70.33;101977.09;5241867;28;20052;-70
2023/06/02 01:20:51;;;;;;;13.75;4.32;;;;;;;11.10;69.47;101976.22;5241603;28;20335;-70
2023/06/02 01:23:31;;;;;;;19.13;5.65;;;;;;;11.10;69.73;101978.81;5241780;28;20029;-70
2023/06/02 01:26:08;;;;;;;13.98;4.47;;;;;;;11.06;68.77;101976.19;5273895;28;20026;-69
2023/06/02 01:28:40;;;;;;;14.27;4.60;;;;;;;11.10;68.20;101983.19;5241793;28;20068;-71
2023/06/02 01:31:16;;;;;;;14.23;4.00;;;;;;;10.93;67.77;101978.75;5241682;28;20069;-69
2023/06/02 01:33:56;;;;;;;13.20;4.80;;;;;;;11.01;71.76;101977.91;5241352;28;20472;-69
2023/06/02 01:36:32;;;;;;;11.25;3.70;;;;;;;10.98;69.41;101978.78;5241440;28;20456;-70
2023/06/02 01:39:06;;;;;;;18.80;4.22;;;;;;;11.03;68.87;101982.28;5241234;28;20030;-70
2023/06/02 01:41:43;;;;;;;18.70;5.10;;;;;;;10.99;69.72;101979.66;5239704;28;20071;-70
2023/06/02 01:44:14;;;;;;;17.58;5.13;;;;;;;10.97;69.35;101970.94;5239905;28;20117;-71
2023/06/02 01:46:45;;;;;;;14.60;5.13;;;;;;;10.97;67.85;101966.59;5240034;28;20125;-70
2023/06/02 01:49:17;;;;;;;21.27;4.93;;;;;;;10.90;68.56;101973.53;5240589;28;20033;-70
2023/06/02 01:51:48;;;;;;;12.70;4.47;;;;;;;10.92;68.50;101976.13;5244963;28;20619;-69
2023/06/02 01:54:21;;;;;;;12.90;4.43;;;;;;;10.80;68.66;101976.06;5259671;28;20492;-70
2023/06/02 01:56:53;;;;;;;16.27;5.82;;;;;;;10.75;69.02;101974.31;5260885;28;20063;-69
2023/06/02 01:59:25;;;;;;;13.30;4.80;;;;;;;10.85;69.43;101970.03;5261535;28;20065;-70
2023/06/02 02:01:56;;;;;;;17.90;5.10;;;;;;;10.83;69.74;101973.47;5254820;28;20132;-71
2023/06/02 02:04:29;;;;;;;13.40;4.67;;;;;;;10.77;69.01;101979.56;5259458;28;20043;-70
2023/06/02 02:07:01;;;;;;;17.02;4.78;;;;;;;10.96;71.93;101964.84;5261412;28;20421;-70
2023/06/02 02:09:33;;;;;;;17.58;4.90;;;;;;;10.77;69.58;101974.34;5262024;28;20037;-69
2023/06/02 02:12:05;;;;;;;14.65;4.07;;;;;;;10.91;69.51;101974.38;5261612;28;20111;-70
2023/06/02 02:14:36;;;;;;;14.10;4.15;;;;;;;10.79;69.78;101977.81;5261932;28;20528;-70
2023/06/02 02:17:10;;;;;;;14.20;4.50;;;;;;;10.74;69.66;101971.72;5261992;28;20040;-70
2023/06/02 02:19:41;;;;;;;17.17;4.03;;;;;;;10.74;69.71;101971.72;5261539;28;20056;-71
2023/06/02 02:22:13;;;;;;;14.23;4.73;;;;;;;10.73;69.56;101976.03;5261809;28;20049;-69
2023/06/02 02:24:46;;;;;;;14.43;4.50;;;;;;;10.81;70.83;101968.25;5260479;28;20530;-70
2023/06/02 02:27:17;;;;;;;16.42;4.38;;;;;;;10.71;70.42;101969.94;5261432;28;20527;-70
2023/06/02 02:29:48;;;;;;;16.60;4.40;;;;;;;10.74;70.51;101977.78;5261889;28;20053;-69
2023/06/02 02:32:20;;;;;;;17.33;5.00;;;;;;;10.89;72.18;101976.13;5261762;28;20037;-69
2023/06/02 02:34:52;;;;;;;12.03;3.90;;;;;;;10.82;70.17;101969.13;5261733;28;20067;-69
2023/06/02 02:37:23;;;;;;;17.40;4.57;;;;;;;10.83;70.59;101969.13;5261395;28;20033;-71
2023/06/02 02:39:54;;;;;;;14.73;4.37;;;;;;;10.82;70.71;101967.41;5260603;28;20104;-71
2023/06/02 02:42:26;;;;;;;12.80;4.57;;;;;;;10.81;69.98;101965.66;5261289;28;20056;-71
2023/06/02 02:44:57;;;;;;;12.83;3.87;;;;;;;10.80;70.67;101969.09;5261890;28;20029;-70
2023/06/02 02:47:28;;;;;;;12.60;3.73;;;;;;;10.79;70.99;101967.38;5265362;28;20028;-70
2023/06/02 02:50:00;;;;;;;18.80;4.47;;;;;;;10.87;71.83;101957.84;5265165;28;20418;-70
2023/06/02 02:52:32;;;;;;;18.37;5.43;;;;;;;10.91;71.48;101958.72;5264794;28;20032;-69
2023/06/02 02:55:04;;;;;;;11.90;4.20;;;;;;;10.88;71.30;101951.78;5265020;28;20112;-70
2023/06/02 02:57:36;;;;;;;10.20;4.18;;;;;;;10.87;70.88;101954.38;5265120;28;20033;-70
2023/06/02 03:00:09;;;;;;;14.52;3.95;;;;;;;10.85;71.06;101954.38;5265033;28;20048;-72
2023/06/02 03:02:40;;;;;;;15.25;4.30;;;;;;;10.83;72.25;101965.66;5263906;28;20029;-70
2023/06/02 03:05:13;;;;;;;17.77;5.30;;;;;;;10.80;71.24;101963.03;5265023;28;20037;-69
2023/06/02 03:07:44;;;;;;;13.07;4.30;;;;;;;10.83;73.51;101963.91;5264689;28;20392;-70
2023/06/02 03:10:15;;;;;;;16.57;5.17;;;;;;;10.87;72.11;101965.69;5263519;28;20029;-69
2023/06/02 03:12:47;;;;;;;11.50;4.30;;;;;;;10.95;73.43;101965.72;5263282;28;20033;-69
2023/06/02 03:15:19;;;;;;;16.47;5.40;;;;;;;10.98;73.38;101965.75;5264958;28;20036;-69
2023/06/02 03:17:50;;;;;;;15.50;5.00;;;;;;;10.95;72.83;101968.34;5264536;28;20078;-70
2023/06/02 03:20:22;;;;;;;16.23;4.17;;;;;;;10.96;72.91;101970.06;5264389;28;20498;-69
2023/06/02 03:22:55;;;;;;;11.93;5.07;;;;;;;10.88;71.86;101971.75;5264741;28;20287;-69
2023/06/02 03:25:26;;;;;;;19.45;6.10;;;;;;;10.96;72.40;101970.06;5264603;28;20052;-70
2023/06/02 03:27:58;;;;;;;14.07;4.37;;;;;;;10.86;71.79;101965.66;5264694;28;20028;-70
2023/06/02 03:30:30;;;;;;;15.90;5.10;;;;;;;10.86;71.35;101978.72;5264677;28;20044;-69
2023/06/02 03:33:01;;;;;;;15.90;4.93;;;;;;;10.74;71.33;101971.72;5264536;28;20032;-69
2023/06/02 03:35:33;;;;;;;15.57;5.00;;;;;;;10.65;72.05;101980.34;5264236;28;20025;-69
2023/06/02 03:38:07;;;;;;;17.97;5.33;;;;;;;10.61;72.00;101983.81;5264179;28;20055;-70
2023/06/02 03:40:38;;;;;;;14.10;4.07;;;;;;;10.62;72.54;101982.06;5264525;28;20082;-71
2023/06/02 03:43:10;;;;;;;14.40;4.47;;;;;;;10.55;71.03;101988.97;5262811;28;20116;-71
2023/06/02 03:45:41;;;;;;;15.67;4.87;;;;;;;10.50;71.07;101981.13;5264354;28;20048;-70
2023/06/02 03:48:12;;;;;;;15.70;4.23;;;;;;;10.48;70.49;101992.38;5264374;28;20040;-69
2023/06/02 03:50:44;;;;;;;17.83;4.73;;;;;;;10.58;71.62;101984.63;5264720;28;20043;-69
2023/06/02 03:53:15;;;;;;;13.03;5.43;;;;;;;10.50;70.12;101988.94;5264085;28;20037;-70
2023/06/02 03:55:46;;;;;;;12.37;4.13;;;;;;;10.55;70.82;101987.22;5264086;28;20050;-70
2023/06/02 03:58:19;;;;;;;16.67;4.37;;;;;;;10.57;72.60;101988.09;5263937;28;20146;-70
2023/06/02 04:00:51;;;;;;;12.25;4.40;;;;;;;10.46;70.47;101992.38;5263868;28;20480;-70
2023/06/02 04:03:22;;;;;;;14.93;4.40;;;;;;;10.60;72.39;101991.59;5264240;28;20033;-70
2023/06/02 04:05:53;;;;;;;13.80;4.27;;;;;;;10.58;72.05;101995.06;5263580;28;20151;-69
2023/06/02 04:08:25;;;;;;;17.30;4.50;;;;;;;10.58;71.65;101997.69;5263820;28;20057;-70
2023/06/02 04:10:56;;;;;;;17.63;5.67;;;;;;;10.58;71.19;102000.28;5263705;28;20049;-70
2023/06/02 04:13:28;;;;;;;13.40;4.23;;;;;;;10.58;71.04;102008.09;5263278;28;20480;-69
2023/06/02 04:15:59;;;;;;;16.00;4.53;;;;;;;10.47;70.64;101999.34;5263623;28;20115;-70
2023/06/02 04:18:36;;;;;;;13.03;4.80;;;;;;;10.54;72.41;101995.03;5263612;28;20040;-70
2023/06/02 04:21:08;;;;;;;18.35;5.22;;;;;;;10.43;70.37;102009.72;5262981;28;20110;-70
2023/06/02 04:23:39;;;;;;;14.40;4.47;;;;;;;10.43;70.88;102002.78;5263545;28;20029;-70
2023/06/02 04:26:10;;;;;;;12.27;4.80;;;;;;;10.37;69.80;101994.94;5263183;28;20044;-70
2023/06/02 04:28:42;;;;;;;18.83;4.33;;;;;;;10.37;70.78;102000.16;5263645;28;20037;-70
2023/06/02 04:31:13;;;;;;;10.93;4.00;;;;;;;10.35;70.34;101996.63;5263413;28;20051;-70
2023/06/02 04:33:44;;;;;;;17.47;3.97;;;;;;;10.37;71.17;101987.13;5263441;28;20477;-70
2023/06/02 04:36:16;;;;;;;12.43;4.27;;;;;;;10.38;71.07;101989.72;5262006;28;20040;-70
2023/06/02 04:38:48;;;;;;;15.67;4.77;;;;;;;10.38;70.06;101994.06;5263436;28;20056;-69
2023/06/02 04:41:19;;;;;;;20.10;5.07;;;;;;;10.36;70.02;102006.22;5263018;28;20036;-70
2023/06/02 04:43:51;;;;;;;14.37;4.27;;;;;;;10.35;70.59;101999.25;5262714;28;20646;-69
2023/06/02 04:46:24;;;;;;;15.60;3.57;;;;;;;10.38;70.64;101996.66;5263009;28;20064;-69
2023/06/02 04:48:56;;;;;;;;;;;;;;;10.49;69.51;101992.41;5263419;28;20405;-70
2023/06/02 04:51:28;;;;;;;11.50;4.20;;;;;;;10.45;70.99;102002.78;5262885;28;19909;-68
2023/06/02 04:54:00;;;;;;;11.45;4.18;;;;;;;10.44;70.76;102001.91;5263041;28;20037;-70
2023/06/02 04:56:32;;;;;;;12.67;4.40;;;;;;;10.52;70.50;102007.19;5261610;28;20381;-69
2023/06/02 04:59:03;;;;;;;21.35;4.85;;;;;;;10.60;71.13;102005.50;5262823;28;20419;-69
2023/06/02 05:01:35;;;;;;;13.00;3.67;;;;;;;10.63;72.00;102008.13;5262671;28;20021;-70
2023/06/02 05:04:07;;;;;;;8.90;3.80;;;;;;;10.52;69.04;102015.88;5262705;28;20062;-71
2023/06/02 05:06:38;;;;;;;15.03;3.40;;;;;;;10.56;69.92;102020.28;5262687;28;20059;-70
2023/06/02 05:09:09;;;;;;;10.93;3.60;;;;;;;10.62;69.95;102018.56;5261976;28;20037;-70
2023/06/02 05:11:41;;;;;;;14.93;4.43;;;;;;;10.84;70.42;102023.06;5262568;28;20189;-69
2023/06/02 05:14:13;;;;;;;12.18;3.33;;;;;;;10.82;69.60;102019.56;5262242;28;20029;-69
2023/06/02 05:16:45;;;;;;;12.10;4.23;;;;;;;10.87;68.03;102022.22;5262595;28;20036;-70
2023/06/02 05:19:16;;;;;;;12.57;3.53;;;;;;;10.82;67.01;102022.19;5262342;28;20364;-70
2023/06/02 05:21:48;;;;;;;15.70;3.70;;;;;;;10.72;67.25;102017.75;5262246;28;20060;-70
2023/06/02 05:24:19;;;;;;;11.00;3.10;;;;;;;10.66;68.33;102029.03;5262520;28;20029;-69
2023/06/02 05:26:50;;;;;;;13.67;4.10;;;;;;;10.60;68.25;102028.97;5262820;28;20044;-70
2023/06/02 05:29:22;;;;;;;10.70;3.27;;;;;;;10.63;68.81;102025.53;5295000;28;20036;-71
2023/06/02 05:31:53;;;;;;;17.10;4.73;;;;;;;10.68;68.98;102032.50;5262575;28;20042;-69
2023/06/02 05:34:25;;;;;;;13.90;4.00;;;;;;;10.78;70.74;102028.22;5262659;28;20031;-68
2023/06/02 05:36:56;;;;;;;14.00;3.60;;;;;;;10.73;68.21;102020.38;5262665;28;20107;-70
2023/06/02 05:39:28;;;;;;;14.40;4.07;;;;;;;10.82;67.69;102024.78;5262527;28;20036;-70
2023/06/02 05:41:59;;;;;;;14.70;4.57;;;;;;;10.82;67.13;102030.00;5262540;28;20063;-70
2023/06/02 05:44:30;;;;;;;21.67;4.40;;;;;;;10.77;66.94;102027.38;5262784;28;20061;-70
2023/06/02 05:47:02;;;;;;;11.60;4.30;;;;;;;10.86;67.81;102021.31;5263398;28;20041;-70
2023/06/02 05:49:33;;;;;;;15.20;3.70;;;;;;;10.82;67.66;102018.69;5263158;28;20040;-67
2023/06/02 05:52:05;;;;;;;14.50;4.63;;;;;;;10.79;67.28;102024.75;5263485;28;20029;-69
2023/06/02 05:54:37;;;;;;;18.63;4.65;;;;;;;10.79;67.25;102021.25;5261241;28;20021;-69
2023/06/02 05:57:09;;;;;;;14.50;4.03;;;;;;;10.87;67.30;102032.66;5262355;28;20039;-69
2023/06/02 05:59:40;;;;;;;11.63;3.70;;;;;;;10.88;67.85;102029.16;5262646;28;20484;-69
2023/06/02 06:02:12;;;;;;;13.83;3.63;;;;;;;10.90;67.32;102030.91;5262046;28;20036;-70
2023/06/02 06:04:43;;;;;;;14.37;3.40;;;;;;;10.94;67.29;102030.06;5262123;28;20056;-70
2023/06/02 06:07:14;;;;;;;12.83;3.43;;;;;;;11.18;70.44;102028.44;5262291;28;20029;-69
2023/06/02 06:09:46;;;;;;;15.00;4.10;;;;;;;11.17;66.68;102025.81;5261018;28;20043;-69
2023/06/02 06:12:17;;;;;;;14.10;3.33;;;;;;;11.23;67.38;102025.84;5260502;28;20614;-69
2023/06/02 06:14:48;;;;;;;10.67;3.57;;;;;;;11.24;65.63;102019.78;5260925;28;20528;-69
2023/06/02 06:17:20;;;;;;;10.93;3.20;;;;;;;11.29;65.81;102025.88;5261851;28;20028;-69
2023/06/02 06:19:51;;;;;;;12.70;3.67;;;;;;;11.34;65.28;102025.91;5265583;28;20518;-70
2023/06/02 06:22:22;;;;;;;19.47;4.53;;;;;;;11.18;63.86;102038.03;5274632;28;20111;-70
2023/06/02 06:24:54;;;;;;;12.00;4.20;;;;;;;11.31;65.12;102034.59;5263671;28;20381;-69
2023/06/02 06:27:25;;;;;;;20.50;3.97;;;;;;;11.17;63.63;102031.03;5265597;28;20415;-69
2023/06/02 06:29:56;;;;;;;11.20;3.70;;;;;;;11.22;64.45;102034.53;5265242;28;20044;-70
2023/06/02 06:32:28;;;;;;;16.30;4.60;;;;;;;11.25;65.33;102037.16;5265984;28;20025;-70
2023/06/02 06:35:00;;;;;;;11.30;3.50;;;;;;;11.27;64.11;102038.03;5264589;28;20068;-69
2023/06/02 06:37:31;;;;;;;13.20;3.77;;;;;;;11.30;63.92;102043.28;5265779;28;20095;-69
2023/06/02 06:40:03;;;;;;;13.80;3.63;;;;;;;11.42;64.38;102038.13;5265248;28;20449;-70
2023/06/02 06:42:34;;;;;;;16.43;4.20;;;;;;;11.42;63.53;102035.50;5265157;28;20095;-70
2023/06/02 06:45:06;;;;;;;18.37;3.70;;;;;;;11.50;64.22;102036.41;5264679;28;20029;-70
2023/06/02 06:47:37;;;;;;;13.32;3.08;;;;;;;11.50;63.18;102038.16;5264724;28;20040;-70
2023/06/02 06:50:09;;;;;;;15.43;3.67;;;;;;;11.48;63.46;102038.16;5247697;28;20029;-69
2023/06/02 06:52:41;;;;;;;14.70;4.05;;;;;;;11.51;64.63;102037.25;5264540;28;20423;-70
2023/06/02 06:55:12;;;;;;;16.70;4.37;;;;;;;11.56;63.86;102029.44;5264742;28;20055;-68
2023/06/02 06:57:44;;;;;;;15.30;3.77;;;;;;;11.67;63.38;102039.09;5262135;28;20099;-69
2023/06/02 07:00:17;;;;;;;16.23;3.70;;;;;;;11.60;62.47;102037.31;5265109;28;20056;-69
2023/06/02 07:02:48;;;;;;;13.73;3.60;;;;;;;11.54;62.58;102037.28;5264615;28;20041;-70
2023/06/02 07:05:20;;;;;;;15.23;3.90;;;;;;;11.68;64.52;102034.72;5263487;28;20039;-68
2023/06/02 07:07:51;;;;;;;11.27;3.50;;;;;;;11.76;65.15;102037.34;5263740;28;20033;-70
2023/06/02 07:10:23;;;;;;;17.20;4.37;;;;;;;11.88;62.18;102039.97;5264736;28;20271;-69
2023/06/02 07:12:54;;;;;;;11.63;3.37;;;;;;;12.07;66.26;102037.44;5262180;28;20449;-70
2023/06/02 07:15:26;;;;;;;12.97;3.67;;;;;;;12.03;61.64;102037.44;5246567;28;20037;-69
2023/06/02 07:17:57;;;;;;;13.40;4.73;;;;;;;11.96;61.01;102034.81;5263557;28;20443;-70
2023/06/02 07:20:28;;;;;;;16.63;4.83;;;;;;;12.02;63.24;102038.28;5262879;28;20524;-69
2023/06/02 07:23:00;;;;;;;16.00;4.17;;;;;;;12.15;62.66;102041.78;5263840;28;20408;-69
2023/06/02 07:25:32;;;;;;;14.37;3.50;;;;;;;12.25;61.21;102031.34;5264478;28;20040;-69
2023/06/02 07:28:03;;;;;;;13.43;3.23;;;;;;;12.36;61.05;102050.53;5261985;28;20279;-70
2023/06/02 07:30:35;;;;;;;16.15;3.78;;;;;;;12.33;62.15;102047.91;5263796;28;20025;-69
2023/06/02 07:33:07;;;;;;;14.50;4.23;;;;;;;12.44;60.26;102053.13;5262969;28;20063;-70
2023/06/02 07:35:38;;;;;;;12.60;4.77;;;;;;;12.56;59.59;102054.00;5263042;28;20025;-70
2023/06/02 07:38:10;;;;;;;17.23;4.23;;;;;;;12.44;58.33;102053.13;5263014;28;20128;-68
2023/06/02 07:40:41;;;;;;;15.73;3.53;;;;;;;12.51;58.90;102047.03;5264194;28;20033;-70
2023/06/02 07:43:12;;;;;;;15.67;4.57;;;;;;;12.65;59.71;102054.88;5261931;28;20078;-70
2023/06/02 07:45:44;;;;;;;15.23;3.70;;;;;;;12.76;58.31;102060.97;5262765;28;20044;-70
2023/06/02 07:48:15;;;;;;;17.77;5.20;;;;;;;12.72;58.66;102046.16;5262980;28;20495;-70
2023/06/02 07:50:46;;;;;;;15.17;3.73;;;;;;;12.94;59.30;102046.97;5261580;28;20033;-70
2023/06/02 07:53:18;;;;;;;16.03;4.53;;;;;;;12.96;58.01;102045.22;5263172;28;20025;-69
2023/06/02 07:55:49;;;;;;;13.70;4.07;;;;;;;13.04;58.43;102045.19;5262461;28;20554;-70
2023/06/02 07:58:21;;;;;;;10.00;3.63;;;;;;;13.20;60.47;102046.00;5261573;28;20036;-69
2023/06/02 08:00:52;;;;;;;14.63;3.93;;;;;;;13.58;60.64;102047.66;5263349;28;20049;-69
2023/06/02 08:03:24;;;;;;;13.10;3.67;;;;;;;13.67;58.69;102037.13;5262068;28;20384;-70
2023/06/02 08:05:55;;;;;;;15.47;4.03;;;;;;;13.86;55.52;102037.84;5263597;28;20033;-70
2023/06/02 08:08:26;;;;;;;19.13;3.93;;;;;;;14.30;55.66;102041.06;5262806;28;20487;-70
2023/06/02 08:10:59;;;;;;;13.67;5.17;;;;;;;14.64;53.80;102043.41;5262308;28;20051;-69
2023/06/02 08:13:30;;;;;;;;;;;;;;;15.36;54.38;102039.09;5261972;28;20036;-70
2023/06/02 08:16:02;;;;;;;14.82;3.58;;;;;;;14.95;52.48;102041.34;5262046;28;20306;-69
2023/06/02 08:18:33;;;;;;;15.60;3.70;;;;;;;14.77;53.29;102043.25;5259884;28;20082;-70
2023/06/02 08:21:05;;;;;;;12.90;4.17;;;;;;;14.72;53.51;102044.22;5262629;28;20033;-70
2023/06/02 08:23:36;;;;;;;17.27;4.53;;;;;;;14.64;51.81;102040.78;5262986;28;20443;-71
2023/06/02 08:26:50;;;;;;;16.85;4.38;;;;;;;14.36;52.67;102044.50;5299850;28;20320;-67
2023/06/02 08:29:22;;;;;;;12.37;3.70;;;;;;;14.89;53.79;102046.66;5300845;28;20361;-67
2023/06/02 08:31:54;;;;;;;15.85;4.10;;;;;;;15.03;50.91;102044.75;5300564;28;20460;-68
2023/06/02 08:34:25;;;;;;;12.73;4.00;;;;;;;15.06;49.28;102046.47;5299308;28;20119;-66
2023/06/02 08:37:00;;;;;;;12.45;3.47;;;;;;;14.45;49.69;102046.16;5300876;28;20486;-67
2023/06/02 08:39:31;;;;;;;15.23;3.90;;;;;;;14.05;51.45;102043.84;5300230;28;20098;-68
2023/06/02 08:42:03;;;;;;;11.43;3.20;;;;;;;13.95;51.64;102044.81;5299012;28;20037;-67
2023/06/02 08:44:35;;;;;;;18.13;4.23;;;;;;;13.86;52.35;102043.09;5299706;28;20046;-67
2023/06/02 08:47:11;;;;;;;16.33;3.85;;;;;;;13.84;52.38;102039.63;5300792;28;20274;-67
2023/06/02 08:49:48;;;;;;;15.68;3.97;;;;;;;14.12;53.63;102037.69;5298505;28;20047;-66
2023/06/02 08:52:25;;;;;;;14.25;4.38;;;;;;;14.21;52.49;102045.47;5299906;28;20024;-67
2023/06/02 08:54:57;;;;;;;14.40;3.92;;;;;;;14.40;52.47;102047.97;5300020;28;20040;-66
2023/06/02 08:57:28;;;;;;;10.37;4.00;;;;;;;14.89;50.63;102034.41;5299080;28;20086;-67
2023/06/02 09:00:00;;;;;;;15.57;4.03;;;;;;;14.81;50.59;102043.22;5298672;28;20039;-67
2023/06/02 09:02:31;;;;;;;15.67;4.17;;;;;;;14.71;49.64;102045.09;5300011;28;20032;-67
2023/06/02 09:05:05;;;;;;;13.30;3.27;;;;;;;14.72;51.41;102036.34;5298670;28;20028;-66
2023/06/02 09:07:36;;;;;;;10.82;3.75;;;;;;;15.11;50.61;102034.16;5288841;28;20166;-69
2023/06/02 09:10:08;;;;;;;11.73;4.60;;;;;;;14.82;49.50;102034.47;5277544;28;20037;-68
2023/06/02 09:12:48;;;;;;;10.67;3.93;;;;;;;14.75;50.42;102033.69;5289490;28;20024;-68
2023/06/02 09:15:19;;;;;;;17.85;4.20;;;;;;;15.07;49.81;102035.94;5300346;28;20042;-67
2023/06/02 09:17:51;;;;;;;12.57;3.80;;;;;;;14.95;48.67;102042.19;5298480;28;20107;-68
2023/06/02 09:20:30;;;;;;;14.52;3.88;;;;;;;15.31;50.36;102037.41;5299661;28;20081;-67
2023/06/02 09:23:02;;;;;;;11.15;3.65;;;;;;;15.48;48.30;102037.19;5298377;28;20059;-67
2023/06/02 09:25:35;;;;;;;14.98;4.15;;;;;;;15.87;49.36;102028.78;5297444;28;20052;-67
2023/06/02 09:28:07;;;;;;;9.27;3.70;;;;;;;15.71;47.93;102029.88;5299379;28;20447;-70
2023/06/02 09:30:39;;;;;;;11.50;3.90;;;;;;;16.46;47.66;102028.72;5299467;28;20058;-68
2023/06/02 09:33:14;;;;;;;17.30;4.10;;;;;;;16.10;45.00;102023.19;5298138;28;20024;-67
2023/06/02 09:35:46;;;;;;;10.00;3.65;;;;;;;16.93;48.96;102015.59;5300000;28;20082;-67
2023/06/02 09:38:18;;;;;;;12.45;5.05;;;;;;;17.44;44.42;102020.69;5284109;28;20036;-68
2023/06/02 09:40:51;;;;;;;12.23;4.30;;;;;;;17.28;44.22;102019.28;5284824;28;20032;-67
2023/06/02 09:43:28;;;;;;;16.85;5.03;;;;;;;17.48;44.21;102019.72;5300155;28;20474;-67
2023/06/02 09:46:03;;;;;;;13.48;4.65;;;;;;;17.66;44.53;102028.09;5285552;28;20460;-67
2023/06/02 09:48:35;;;;;;;17.08;4.70;;;;;;;17.90;44.43;102021.44;5277183;28;20379;-67
2023/06/02 09:51:38;;;;;;;10.83;4.10;;;;;;;18.30;43.67;102022.22;5275307;28;20036;-66
2023/06/02 09:54:10;;;;;;;11.50;4.00;;;;;;;18.31;42.66;102026.63;5250588;28;20388;-67
2023/06/02 09:56:43;;;;;;;10.85;4.30;;;;;;;18.19;42.40;102017.22;5284270;28;20035;-67
2023/06/02 09:59:15;;;;;;;7.38;2.97;;;;;;;18.39;42.89;102022.00;5284733;28;20029;-67
2023/06/02 10:01:48;;;;;;;13.50;3.97;;;;;;;18.68;42.08;102023.00;5285077;28;20123;-66
2023/06/02 10:04:19;;;;;;;16.05;4.78;;;;;;;18.38;41.38;102015.84;5283129;28;20126;-67
2023/06/02 10:07:26;;;;;;;14.30;3.83;;;;;;;20.64;38.71;102009.06;5285777;28;20060;-67
2023/06/02 10:10:16;;;;;;;15.02;4.35;;;;;;;22.38;37.61;102015.59;5247656;28;20036;-68
2023/06/02 10:13:07;;;;;;;14.73;3.95;;;;;;;23.69;33.91;102019.44;5284017;28;20036;-67
2023/06/02 10:15:47;;;;;;;17.13;4.55;;;;;;;25.15;30.88;102008.41;5262884;28;20040;-67
2023/06/02 10:18:53;;;;;;;11.25;4.38;;;;;;;23.88;31.78;102007.00;5263063;28;20115;-66
2023/06/02 10:21:46;;;;;;;13.77;3.58;;;;;;;23.20;33.52;101998.69;5264170;28;20087;-69
2023/06/02 10:24:35;;;;;;;14.60;3.90;;;;;;;23.78;33.89;102005.66;5262857;28;20029;-68
2023/06/02 10:27:13;;;;;;;13.70;4.57;;;;;;;23.31;32.53;102012.34;5279572;28;20028;-67
2023/06/02 10:29:45;;;;;;;10.82;4.25;;;;;;;23.33;32.58;102014.94;5282549;28;20036;-68
2023/06/02 10:32:27;;;;;;;;;;;;;;;24.78;31.61;102010.41;5285266;28;20036;-67
2023/06/02 10:35:00;;;;;;;10.07;3.75;;;;;;;23.50;34.72;102004.34;5284281;28;19958;-69
2023/06/02 10:37:34;;;;;;;12.55;3.70;;;;;;;22.44;34.97;102017.13;5282524;28;20040;-67
2023/06/02 10:40:08;;;;;;;11.82;3.92;;;;;;;20.92;35.41;102007.16;5284468;28;20025;-67
2023/06/02 10:43:10;;;;;;;9.20;3.80;;;;;;;22.45;34.83;102014.41;5283917;28;20031;-67
2023/06/02 10:45:42;;;;;;;12.50;3.55;;;;;;;22.93;33.80;102004.31;5285016;28;20025;-68
2023/06/02 10:48:32;;;;;;;;;;;;;;;24.09;31.76;102007.72;5282450;28;20036;-67
2023/06/02 10:51:08;;;;;;;11.15;3.70;;;;;;;21.07;36.30;102005.69;5282600;28;19912;-67
2023/06/02 10:54:06;;;;;;;11.23;3.38;;;;;;;23.20;35.80;101991.59;5281198;28;20111;-66
2023/06/02 10:56:42;;;;;;;13.88;4.00;;;;;;;24.74;31.37;102002.56;5263417;28;20033;-69
2023/06/02 10:59:35;;;;;;;13.35;4.50;;;;;;;26.34;31.61;102014.09;5263258;28;20115;-67
2023/06/02 11:02:08;;;;;;;14.85;3.72;;;;;;;25.72;29.92;102006.13;5263790;28;20040;-68
2023/06/02 11:04:42;;;;;;;;;;;;;;;24.44;30.76;102006.84;5263570;28;20376;-69
2023/06/02 11:07:21;;;;;;;8.75;3.63;;;;;;;22.70;34.36;102005.34;5263424;28;19916;-68
2023/06/02 11:09:58;;;;;;;11.32;4.10;;;;;;;23.64;33.97;101999.22;5262634;28;20045;-66
2023/06/02 11:12:51;;;;;;;13.43;4.35;;;;;;;24.93;32.13;101993.59;5261745;28;20068;-67
2023/06/02 11:15:24;;;;;;;11.80;4.07;;;;;;;23.52;33.83;101991.81;5263886;28;20488;-67
2023/06/02 11:17:56;;;;;;;9.82;3.65;;;;;;;24.21;32.08;101996.44;5261635;28;20539;-65
2023/06/02 11:20:34;;;;;;;10.35;3.70;;;;;;;23.97;33.48;102001.22;5263164;28;20112;-67
2023/06/02 11:23:06;;;;;;;14.40;4.18;;;;;;;22.12;34.98;101990.09;5262806;28;20474;-67
2023/06/02 11:25:38;;;;;;;14.93;4.53;;;;;;;21.49;36.56;101983.81;5263334;28;20106;-68
2023/06/02 11:28:23;;;;;;;8.85;3.53;;;;;;;22.31;35.89;101991.06;5262450;28;20484;-67
2023/06/02 11:31:12;;;;;;;15.10;3.83;;;;;;;20.68;38.56;101993.00;5263370;28;20032;-67
2023/06/02 11:33:48;;;;;;;10.13;4.05;;;;;;;20.62;39.17;102001.13;5262291;28;20551;-68
2023/06/02 11:36:28;;;;;;;12.85;4.50;;;;;;;20.44;39.71;102002.66;5262921;28;20388;-67
2023/06/02 11:39:07;;;;;;;11.10;4.20;;;;;;;20.72;39.56;101999.94;5262621;28;20048;-67
2023/06/02 11:41:39;;;;;;;13.45;4.47;;;;;;;21.39;38.37;101987.69;5262874;28;20021;-67
2023/06/02 11:44:13;;;;;;;12.03;4.27;;;;;;;21.24;37.73;101997.13;5261934;28;20033;-67
2023/06/02 11:46:45;;;;;;;12.65;4.20;;;;;;;21.23;39.01;101989.22;5262975;28;20279;-67
2023/06/02 11:49:17;;;;;;;10.77;3.88;;;;;;;23.83;34.63;102003.69;5261252;28;20389;-67